Time;durP1;ratioP1;P1;durP2;ratioP2;P2;SDS_P1;SDS_P2;PMS_P1;PMS_P2;Temp;Humidity;BMP_temperature;BMP_pressure;BME280_temperature;BME280_humidity;BME280_pressure;Samples;Min_cycle;Max_cycle;Signal;HPM_P1;HPM_P2
2023/06/18 00:01:29;;;;;;;0.10;0.10;;;15.80;99.90;;;;;;5086388;28;20211;-79
2023/06/18 00:03:55;;;;;;;0.10;0.10;;;15.80;99.90;;;;;;5085585;28;21039;-78
2023/06/18 00:06:21;;;;;;;0.10;0.10;;;15.80;99.90;;;;;;5091780;28;20478;-78
2023/06/18 00:08:47;;;;;;;0.10;0.10;;;15.80;99.90;;;;;;5083620;28;20249;-79
2023/06/18 00:11:13;;;;;;;0.10;0.10;;;15.80;99.90;;;;;;5088280;28;20181;-78
2023/06/18 00:13:38;;;;;;;0.10;0.10;;;15.70;99.90;;;;;;5090950;28;20512;-79
2023/06/18 00:16:04;;;;;;;0.10;0.10;;;15.70;99.90;;;;;;5089657;28;20190;-79
2023/06/18 00:18:31;;;;;;;0.10;0.10;;;15.70;99.90;;;;;;5073803;28;20193;-79
2023/06/18 00:20:59;;;;;;;0.10;0.10;;;15.60;99.90;;;;;;5088208;28;20194;-79
2023/06/18 00:23:24;;;;;;;0.10;0.10;;;15.50;99.90;;;;;;5087947;28;20430;-79
2023/06/18 00:25:51;;;;;;;0.10;0.10;;;15.60;99.90;;;;;;5089323;28;20446;-79
2023/06/18 00:28:16;;;;;;;0.10;0.10;;;15.50;99.90;;;;;;5089488;28;20291;-79
2023/06/18 00:30:42;;;;;;;0.10;0.10;;;15.50;99.90;;;;;;5087021;28;20464;-79
2023/06/18 00:33:07;;;;;;;0.10;0.10;;;15.50;99.90;;;;;;5087770;28;20193;-79
2023/06/18 00:35:33;;;;;;;0.10;0.10;;;15.30;99.90;;;;;;5087737;28;20191;-79
2023/06/18 00:37:59;;;;;;;0.10;0.10;;;15.40;99.90;;;;;;5101107;28;20204;-79
2023/06/18 00:40:24;;;;;;;0.10;0.10;;;15.40;99.90;;;;;;5093807;28;20212;-79
2023/06/18 00:42:52;;;;;;;0.10;0.10;;;15.40;99.90;;;;;;5085307;28;20187;-79
2023/06/18 00:45:18;;;;;;;0.10;0.10;;;15.20;99.90;;;;;;5070120;28;20181;-79
2023/06/18 00:47:44;;;;;;;0.10;0.10;;;15.20;99.90;;;;;;5070716;28;20462;-79
2023/06/18 00:50:15;;;;;;;0.10;0.10;;;15.20;99.90;;;;;;5071294;28;20259;-78
2023/06/18 00:52:47;;;;;;;0.10;0.10;;;15.30;99.90;;;;;;5090608;28;20407;-79
2023/06/18 00:55:20;;;;;;;0.10;0.10;;;15.50;99.90;;;;;;5089516;28;20458;-79
2023/06/18 00:57:49;;;;;;;0.10;0.10;;;15.50;99.90;;;;;;5070902;28;20449;-78
2023/06/18 01:00:16;;;;;;;0.10;0.10;;;15.60;99.90;;;;;;5084095;28;20439;-79
2023/06/18 01:02:45;;;;;;;0.10;0.10;;;15.50;99.90;;;;;;5098293;28;20430;-78
2023/06/18 01:05:14;;;;;;;0.10;0.10;;;15.40;99.90;;;;;;5076546;28;20475;-78
2023/06/18 01:07:42;;;;;;;0.10;0.10;;;15.30;99.90;;;;;;5088847;28;20477;-79
2023/06/18 01:10:08;;;;;;;0.10;0.10;;;15.20;99.90;;;;;;5088747;28;20899;-79
2023/06/18 01:12:34;;;;;;;0.10;0.10;;;15.30;99.90;;;;;;5089513;28;20447;-78
2023/06/18 01:14:59;;;;;;;0.10;0.10;;;15.20;99.90;;;;;;5086413;28;20189;-78
2023/06/18 01:17:29;;;;;;;0.10;0.10;;;15.20;99.90;;;;;;5084526;28;20272;-79
2023/06/18 01:20:00;;;;;;;0.10;0.10;;;15.10;99.90;;;;;;5087278;28;20204;-78
2023/06/18 01:22:29;;;;;;;0.10;0.10;;;14.90;99.90;;;;;;5084888;28;20454;-79
2023/06/18 01:24:57;;;;;;;0.10;0.10;;;15.00;99.90;;;;;;5084877;28;20440;-79
2023/06/18 01:27:27;;;;;;;0.10;0.10;;;14.90;99.90;;;;;;5089371;28;20484;-79
2023/06/18 01:29:54;;;;;;;0.10;0.10;;;14.70;99.90;;;;;;5088837;28;20810;-79
2023/06/18 01:32:21;;;;;;;0.10;0.10;;;14.60;99.90;;;;;;5095428;28;20427;-79
2023/06/18 01:34:47;;;;;;;0.10;0.10;;;14.70;99.90;;;;;;5088080;28;21007;-78
2023/06/18 01:37:35;;;;;;;0.10;0.10;;;15.30;99.90;;;;;;5087283;28;20439;-79
2023/06/18 01:40:30;;;;;;;0.10;0.10;;;15.70;99.90;;;;;;5086605;28;20444;-79
2023/06/18 01:43:22;;;;;;;0.10;0.10;;;15.20;99.90;;;;;;5070644;28;20456;-78
2023/06/18 01:46:03;;;;;;;0.10;0.10;;;14.90;99.90;;;;;;5080483;28;20533;-79
2023/06/18 01:48:36;;;;;;;0.10;0.10;;;14.70;99.90;;;;;;5092416;28;20575;-78
2023/06/18 01:51:05;;;;;;;0.10;0.10;;;14.80;99.90;;;;;;5072715;28;20499;-79
2023/06/18 01:53:33;;;;;;;0.10;0.10;;;14.70;99.90;;;;;;5090436;28;20512;-79
2023/06/18 01:56:00;;;;;;;0.10;0.10;;;14.60;99.90;;;;;;5090606;28;20585;-79
2023/06/18 01:58:26;;;;;;;0.10;0.10;;;14.70;99.90;;;;;;5089437;28;20447;-79
2023/06/18 02:00:52;;;;;;;0.10;0.10;;;14.60;99.90;;;;;;5074344;28;20447;-78
2023/06/18 02:03:19;;;;;;;0.10;0.10;;;14.40;99.90;;;;;;5113330;28;20176;-79
2023/06/18 02:05:45;;;;;;;0.10;0.10;;;14.50;99.90;;;;;;5091461;28;20274;-79
2023/06/18 02:08:11;;;;;;;0.10;0.10;;;14.30;99.90;;;;;;5078836;28;20482;-79
2023/06/18 02:10:36;;;;;;;0.10;0.10;;;14.50;99.90;;;;;;5076542;28;20439;-79
2023/06/18 02:13:02;;;;;;;0.10;0.10;;;14.40;99.90;;;;;;5091273;28;20185;-79
2023/06/18 02:15:27;;;;;;;0.10;0.10;;;14.40;99.90;;;;;;5101070;28;20177;-79
2023/06/18 02:17:53;;;;;;;0.10;0.10;;;14.30;99.90;;;;;;5086978;28;20831;-79
2023/06/18 02:20:19;;;;;;;0.10;0.10;;;14.30;99.90;;;;;;5089743;28;20180;-79
2023/06/18 02:22:45;;;;;;;0.10;0.10;;;14.40;99.90;;;;;;5090942;28;20185;-79
2023/06/18 02:25:10;;;;;;;0.10;0.10;;;14.30;99.90;;;;;;5090766;28;20441;-79
2023/06/18 02:27:36;;;;;;;0.10;0.10;;;14.20;99.90;;;;;;5091339;28;20212;-79
2023/06/18 02:30:03;;;;;;;0.10;0.10;;;14.20;99.90;;;;;;5089997;28;20193;-78
2023/06/18 02:32:31;;;;;;;0.10;0.10;;;14.20;99.90;;;;;;5091534;28;20186;-79
2023/06/18 02:34:56;;;;;;;0.10;0.10;;;14.20;99.90;;;;;;5090483;28;20427;-79
2023/06/18 02:37:22;;;;;;;0.10;0.10;;;14.20;99.90;;;;;;5078595;28;20454;-79
2023/06/18 02:39:47;;;;;;;0.10;0.10;;;14.10;99.90;;;;;;5090475;28;20189;-78
2023/06/18 02:42:13;;;;;;;0.10;0.10;;;14.10;99.90;;;;;;5072350;28;20193;-79
2023/06/18 02:44:41;;;;;;;0.10;0.10;;;14.00;99.90;;;;;;5088502;28;20209;-79
2023/06/18 02:47:08;;;;;;;0.10;0.10;;;14.10;99.90;;;;;;5087578;28;20181;-79
2023/06/18 02:49:36;;;;;;;0.10;0.10;;;14.00;99.90;;;;;;5089950;28;20447;-79
2023/06/18 02:52:02;;;;;;;0.10;0.10;;;14.10;99.90;;;;;;5071835;28;20451;-79
2023/06/18 02:54:27;;;;;;;0.10;0.10;;;14.00;99.90;;;;;;5090607;28;20450;-79
2023/06/18 02:56:53;;;;;;;0.10;0.10;;;14.10;99.90;;;;;;5091902;28;20529;-79
2023/06/18 02:59:18;;;;;;;0.10;0.10;;;14.20;99.90;;;;;;5089605;28;20193;-79
2023/06/18 03:01:45;;;;;;;0.10;0.10;;;14.10;99.90;;;;;;5089867;28;20185;-78
2023/06/18 03:04:12;;;;;;;0.10;0.10;;;14.20;99.90;;;;;;5088071;28;20185;-79
2023/06/18 03:06:37;;;;;;;0.10;0.10;;;14.10;99.90;;;;;;5085474;28;20449;-79
2023/06/18 03:09:03;;;;;;;0.10;0.10;;;14.20;99.90;;;;;;5088379;28;20478;-79
2023/06/18 03:11:30;;;;;;;0.10;0.10;;;14.20;99.90;;;;;;5088528;28;20284;-79
2023/06/18 03:13:55;;;;;;;0.10;0.10;;;14.10;99.90;;;;;;5087688;28;20824;-79
2023/06/18 03:16:23;;;;;;;0.10;0.10;;;14.00;99.90;;;;;;5088118;28;20447;-79
2023/06/18 03:18:49;;;;;;;0.10;0.10;;;14.00;99.90;;;;;;5089121;28;20263;-78
2023/06/18 03:21:15;;;;;;;0.10;0.10;;;14.00;99.90;;;;;;5091253;28;20438;-79
2023/06/18 03:23:41;;;;;;;0.10;0.10;;;14.00;99.90;;;;;;5096750;28;20195;-79
2023/06/18 03:26:06;;;;;;;0.10;0.10;;;14.10;99.90;;;;;;5094017;28;20220;-79
2023/06/18 03:28:32;;;;;;;0.10;0.10;;;14.20;99.90;;;;;;5090660;28;20537;-79
2023/06/18 03:30:58;;;;;;;0.10;0.10;;;14.10;99.90;;;;;;5087238;28;20192;-79
2023/06/18 03:33:24;;;;;;;0.10;0.10;;;14.10;99.90;;;;;;5090545;28;20782;-79
2023/06/18 03:35:51;;;;;;;0.10;0.10;;;14.40;99.90;;;;;;5088183;28;20547;-79
2023/06/18 03:38:17;;;;;;;0.10;0.10;;;14.50;99.90;;;;;;5089113;28;20181;-79
2023/06/18 03:40:42;;;;;;;0.10;0.10;;;14.50;99.90;;;;;;5089627;28;20450;-79
2023/06/18 03:43:08;;;;;;;0.10;0.10;;;14.10;99.90;;;;;;5091993;28;20199;-79
2023/06/18 03:45:33;;;;;;;0.10;0.10;;;14.20;99.90;;;;;;5103828;28;20185;-78
2023/06/18 03:47:59;;;;;;;0.10;0.10;;;14.30;99.90;;;;;;5087582;28;20779;-79
2023/06/18 03:50:24;;;;;;;0.10;0.10;;;14.10;99.90;;;;;;5078928;28;20472;-79
2023/06/18 03:52:50;;;;;;;0.10;0.10;;;14.20;99.90;;;;;;5099958;28;20197;-79
2023/06/18 03:55:15;;;;;;;0.10;0.10;;;14.30;99.90;;;;;;5106944;28;20191;-79
2023/06/18 03:57:41;;;;;;;0.10;0.10;;;14.20;99.90;;;;;;5091933;28;20189;-79
2023/06/18 04:00:08;;;;;;;0.20;0.10;;;14.20;99.90;;;;;;5086779;28;20189;-79
2023/06/18 04:02:34;;;;;;;0.10;0.10;;;14.20;99.90;;;;;;5088441;28;20192;-79
2023/06/18 04:05:00;;;;;;;0.10;0.10;;;14.20;99.90;;;;;;5087534;28;20830;-79
2023/06/18 04:07:26;;;;;;;0.10;0.10;;;14.20;99.90;;;;;;5071666;28;20510;-79
2023/06/18 04:09:51;;;;;;;0.10;0.10;;;14.30;99.90;;;;;;5079252;28;20185;-79
2023/06/18 04:12:17;;;;;;;0.10;0.10;;;14.40;99.90;;;;;;5085001;28;20185;-79
2023/06/18 04:14:43;;;;;;;0.10;0.10;;;14.50;99.90;;;;;;5091694;28;20188;-79
2023/06/18 04:17:08;;;;;;;0.10;0.10;;;14.60;99.90;;;;;;5095777;28;20371;-79
2023/06/18 04:19:34;;;;;;;0.10;0.10;;;14.60;99.90;;;;;;5087287;28;20660;-79
2023/06/18 04:21:59;;;;;;;0.10;0.10;;;14.70;99.90;;;;;;5087806;28;20207;-79
2023/06/18 04:24:25;;;;;;;0.10;0.10;;;14.70;99.90;;;;;;5092599;28;20199;-79
2023/06/18 04:26:50;;;;;;;0.10;0.10;;;14.50;99.90;;;;;;5093951;28;20183;-79
2023/06/18 04:29:16;;;;;;;0.10;0.10;;;14.60;99.90;;;;;;5088468;28;20308;-79
2023/06/18 04:31:41;;;;;;;0.10;0.10;;;14.60;99.90;;;;;;5085312;28;20181;-79
2023/06/18 04:34:07;;;;;;;0.10;0.10;;;14.70;99.90;;;;;;5088753;28;20266;-78
2023/06/18 04:36:33;;;;;;;0.10;0.10;;;14.70;99.90;;;;;;5088423;28;20191;-79
2023/06/18 04:38:59;;;;;;;0.10;0.10;;;14.90;99.90;;;;;;5086411;28;20547;-79
2023/06/18 04:41:25;;;;;;;0.10;0.10;;;14.90;99.90;;;;;;5087587;28;20445;-78
2023/06/18 04:43:51;;;;;;;0.10;0.10;;;14.90;99.90;;;;;;5107077;28;20902;-79
2023/06/18 04:46:17;;;;;;;0.10;0.10;;;15.00;99.90;;;;;;5089900;28;20470;-79
2023/06/18 04:48:42;;;;;;;0.10;0.10;;;15.00;99.90;;;;;;5104838;28;20370;-79
2023/06/18 04:51:08;;;;;;;0.10;0.10;;;15.10;99.90;;;;;;5092755;28;20185;-79
2023/06/18 04:53:34;;;;;;;0.10;0.10;;;15.20;99.90;;;;;;5090079;28;20576;-79
2023/06/18 04:56:00;;;;;;;0.10;0.10;;;15.20;99.90;;;;;;5088432;28;20264;-79
2023/06/18 04:58:27;;;;;;;0.10;0.10;;;15.20;99.90;;;;;;5090836;28;20200;-79
2023/06/18 05:00:53;;;;;;;0.10;0.10;;;15.30;99.90;;;;;;5097021;28;20486;-78
2023/06/18 05:03:18;;;;;;;0.10;0.10;;;15.40;99.90;;;;;;5063324;28;20467;-79
2023/06/18 05:05:44;;;;;;;0.10;0.10;;;15.50;99.90;;;;;;5086346;28;20623;-79
2023/06/18 05:08:09;;;;;;;0.10;0.10;;;15.40;99.90;;;;;;5082104;28;20225;-79
2023/06/18 05:10:35;;;;;;;0.10;0.10;;;15.60;99.90;;;;;;5062546;28;20192;-79
2023/06/18 05:13:01;;;;;;;0.10;0.10;;;15.70;99.90;;;;;;5086807;28;20277;-79
2023/06/18 05:15:27;;;;;;;0.10;0.10;;;15.70;99.90;;;;;;5084225;28;20518;-79
2023/06/18 05:17:52;;;;;;;0.10;0.10;;;15.90;99.90;;;;;;5084361;28;20446;-79
2023/06/18 05:20:18;;;;;;;0.10;0.10;;;16.10;99.90;;;;;;5086973;28;20193;-79
2023/06/18 05:22:43;;;;;;;0.10;0.10;;;16.30;99.90;;;;;;5093331;28;20193;-79
2023/06/18 05:25:09;;;;;;;0.10;0.10;;;16.50;99.90;;;;;;5091875;28;20193;-79
2023/06/18 05:27:35;;;;;;;0.10;0.10;;;16.70;99.90;;;;;;5092748;28;20279;-79
2023/06/18 05:30:00;;;;;;;0.10;0.10;;;16.70;99.90;;;;;;5085915;28;20299;-78
2023/06/18 05:32:26;;;;;;;0.10;0.10;;;17.00;99.90;;;;;;5089518;28;20193;-78
2023/06/18 05:34:54;;;;;;;0.10;0.10;;;16.90;99.90;;;;;;5087238;28;20637;-79
2023/06/18 05:37:19;;;;;;;0.10;0.10;;;17.00;99.90;;;;;;5090337;28;20193;-78
2023/06/18 05:39:45;;;;;;;0.10;0.10;;;17.00;99.90;;;;;;5091780;28;20443;-78
2023/06/18 05:42:10;;;;;;;0.10;0.10;;;17.10;99.90;;;;;;5087377;28;20602;-78
2023/06/18 05:44:36;;;;;;;0.10;0.10;;;17.20;99.90;;;;;;5089916;28;20189;-79
2023/06/18 05:47:02;;;;;;;0.10;0.10;;;17.40;99.90;;;;;;5089856;28;20185;-79
2023/06/18 05:49:27;;;;;;;0.10;0.10;;;17.70;99.90;;;;;;5091780;28;20232;-79
2023/06/18 05:51:53;;;;;;;0.10;0.10;;;17.80;99.90;;;;;;5091531;28;20497;-79
2023/06/18 05:54:18;;;;;;;0.10;0.10;;;17.90;99.90;;;;;;5092022;28;20226;-79
2023/06/18 05:56:44;;;;;;;0.10;0.10;;;17.90;99.90;;;;;;5087953;28;20185;-79
2023/06/18 05:59:11;;;;;;;0.10;0.10;;;18.00;99.90;;;;;;5095301;28;20181;-79
2023/06/18 06:01:37;;;;;;;0.10;0.10;;;18.20;99.90;;;;;;5089962;28;20185;-79
2023/06/18 06:04:03;;;;;;;0.10;0.10;;;18.30;99.90;;;;;;5091896;28;20976;-79
2023/06/18 06:06:29;;;;;;;0.10;0.10;;;18.60;99.90;;;;;;5098947;28;20484;-79
2023/06/18 06:08:55;;;;;;;0.10;0.10;;;18.80;99.90;;;;;;5088330;28;21009;-79
2023/06/18 06:11:21;;;;;;;0.10;0.10;;;18.90;99.90;;;;;;5089143;28;20194;-78
2023/06/18 06:13:46;;;;;;;0.10;0.10;;;19.10;99.90;;;;;;5086036;28;20196;-78
2023/06/18 06:16:12;;;;;;;0.10;0.10;;;19.20;99.90;;;;;;5087498;28;20837;-76
2023/06/18 06:18:37;;;;;;;0.10;0.10;;;19.20;99.90;;;;;;5075281;28;20249;-78
2023/06/18 06:21:03;;;;;;;0.10;0.00;;;19.20;99.90;;;;;;5092508;28;20543;-77
2023/06/18 06:23:30;;;;;;;0.10;0.10;;;19.30;99.90;;;;;;5088898;28;20804;-78
2023/06/18 06:25:56;;;;;;;0.10;0.10;;;19.50;99.90;;;;;;5086187;28;20268;-79
2023/06/18 06:28:21;;;;;;;0.10;0.00;;;19.50;99.90;;;;;;5087478;28;21058;-78
2023/06/18 06:30:47;;;;;;;0.10;0.00;;;19.60;99.90;;;;;;5088454;28;20177;-78
2023/06/18 06:33:13;;;;;;;0.10;0.10;;;19.70;99.90;;;;;;5092195;28;20184;-78
2023/06/18 06:35:38;;;;;;;0.10;0.10;;;19.80;99.90;;;;;;5091108;28;20181;-78
2023/06/18 06:38:04;;;;;;;0.10;0.00;;;19.90;99.90;;;;;;5091644;28;20667;-78
2023/06/18 06:40:30;;;;;;;0.10;0.00;;;20.10;99.90;;;;;;5092589;28;20201;-77
2023/06/18 06:42:55;;;;;;;0.10;0.00;;;20.10;99.90;;;;;;5092261;28;20200;-78
2023/06/18 06:45:21;;;;;;;0.10;0.00;;;20.20;99.90;;;;;;5089657;28;20443;-78
2023/06/18 06:47:48;;;;;;;0.10;0.00;;;20.30;99.90;;;;;;5089510;28;20224;-78
2023/06/18 06:50:14;;;;;;;0.00;0.00;;;20.50;99.90;;;;;;5092139;28;20528;-78
2023/06/18 06:52:39;;;;;;;0.00;0.00;;;20.50;99.90;;;;;;5091039;28;20443;-78
2023/06/18 06:55:05;;;;;;;0.10;0.00;;;20.50;99.90;;;;;;5072452;28;20435;-78
2023/06/18 06:57:31;;;;;;;0.10;0.00;;;20.50;99.90;;;;;;5089883;28;20204;-78
2023/06/18 06:59:56;;;;;;;0.10;0.00;;;20.80;99.90;;;;;;5089486;28;20192;-78
2023/06/18 07:02:22;;;;;;;0.10;0.10;;;20.90;99.90;;;;;;5086118;28;20680;-80
2023/06/18 07:04:48;;;;;;;0.10;0.00;;;20.90;99.90;;;;;;5088844;28;20221;-78
2023/06/18 07:07:16;;;;;;;0.10;0.00;;;20.80;99.90;;;;;;5091055;28;20272;-80
2023/06/18 07:09:42;;;;;;;0.10;0.00;;;20.70;99.90;;;;;;5070099;28;20540;-81
2023/06/18 07:12:08;;;;;;;0.10;0.10;;;20.70;99.90;;;;;;5088876;28;20454;-80
2023/06/18 07:14:34;;;;;;;0.10;0.00;;;20.80;99.90;;;;;;5087546;28;20184;-80
2023/06/18 07:17:00;;;;;;;0.10;0.00;;;21.00;99.90;;;;;;5085396;28;20185;-80
2023/06/18 07:19:26;;;;;;;0.10;0.00;;;21.20;99.90;;;;;;5083812;28;20969;-79
2023/06/18 07:21:51;;;;;;;0.10;0.00;;;21.10;99.90;;;;;;5086882;28;20200;-79
2023/06/18 07:24:17;;;;;;;0.10;0.00;;;21.10;99.90;;;;;;5090123;28;20189;-77
2023/06/18 07:26:42;;;;;;;0.10;0.00;;;21.40;99.90;;;;;;5084768;28;20254;-79
2023/06/18 07:29:08;;;;;;;0.10;0.00;;;21.00;99.90;;;;;;5067360;28;20213;-79
2023/06/18 07:31:34;;;;;;;0.10;0.00;;;21.00;99.90;;;;;;5086881;28;20200;-79
2023/06/18 07:33:59;;;;;;;0.10;0.00;;;21.10;99.90;;;;;;5090223;28;20684;-79
2023/06/18 07:36:25;;;;;;;0.10;0.00;;;21.30;99.90;;;;;;5081405;28;21240;-78
2023/06/18 07:38:51;;;;;;;0.10;0.00;;;21.60;99.90;;;;;;5091144;28;20189;-79
2023/06/18 07:41:16;;;;;;;0.10;0.00;;;21.70;99.90;;;;;;5084693;28;20189;-79
2023/06/18 07:43:42;;;;;;;0.10;0.00;;;21.80;99.90;;;;;;5081836;28;20189;-78
2023/06/18 07:46:07;;;;;;;0.10;0.00;;;21.80;99.90;;;;;;5087704;28;20697;-79
2023/06/18 07:48:33;;;;;;;0.10;0.00;;;21.90;99.90;;;;;;5089945;28;20635;-78
2023/06/18 07:50:58;;;;;;;0.10;0.00;;;21.90;99.90;;;;;;5091055;28;20184;-78
2023/06/18 07:53:24;;;;;;;0.10;0.00;;;22.10;99.90;;;;;;5089947;28;20702;-78
2023/06/18 07:55:49;;;;;;;0.10;0.00;;;22.20;99.90;;;;;;5070804;28;20227;-79
2023/06/18 07:58:15;;;;;;;0.10;0.00;;;22.20;99.90;;;;;;5089799;28;20276;-79
2023/06/18 08:00:41;;;;;;;0.10;0.00;;;22.30;99.90;;;;;;5088052;28;20212;-79
2023/06/18 08:03:06;;;;;;;0.10;0.00;;;22.40;99.90;;;;;;5100957;28;20605;-79
2023/06/18 08:05:32;;;;;;;0.10;0.00;;;22.40;99.90;;;;;;5094406;28;20751;-78
2023/06/18 08:07:57;;;;;;;0.10;0.00;;;22.40;99.90;;;;;;5072570;28;20692;-78
2023/06/18 08:10:24;;;;;;;0.10;0.00;;;22.60;99.90;;;;;;5096574;28;20204;-78
2023/06/18 08:12:50;;;;;;;0.10;0.00;;;22.60;99.90;;;;;;5097409;28;20439;-78
2023/06/18 08:15:15;;;;;;;0.10;0.00;;;22.60;99.90;;;;;;5088140;28;20884;-78
2023/06/18 08:17:41;;;;;;;0.10;0.00;;;22.90;99.90;;;;;;5085162;28;20232;-79
2023/06/18 08:20:07;;;;;;;0.10;0.00;;;23.00;99.90;;;;;;5069324;28;20182;-78
2023/06/18 08:22:32;;;;;;;0.10;0.00;;;23.20;99.90;;;;;;5083316;28;20204;-78
2023/06/18 08:24:58;;;;;;;0.10;0.00;;;23.20;99.90;;;;;;5094301;28;20473;-78
2023/06/18 08:27:23;;;;;;;0.10;0.00;;;23.10;99.90;;;;;;5088831;28;20217;-78
2023/06/18 08:29:49;;;;;;;0.10;0.00;;;23.30;99.90;;;;;;5089780;28;20185;-77
2023/06/18 08:32:15;;;;;;;0.10;0.00;;;23.70;99.90;;;;;;5088675;28;20173;-79
2023/06/18 08:34:45;;;;;;;0.10;0.00;;;23.80;99.90;;;;;;5083235;28;20442;-78
2023/06/18 08:37:11;;;;;;;0.10;0.00;;;23.90;99.90;;;;;;5089319;28;20185;-80
2023/06/18 08:39:37;;;;;;;0.10;0.00;;;23.90;99.90;;;;;;5099430;28;20433;-79
2023/06/18 08:42:03;;;;;;;0.10;0.00;;;23.90;99.90;;;;;;5108386;28;21001;-80
2023/06/18 08:44:30;;;;;;;0.10;0.00;;;23.60;99.90;;;;;;5076701;28;20181;-80
2023/06/18 08:47:00;;;;;;;0.10;0.00;;;23.90;99.90;;;;;;5071514;28;20180;-79
2023/06/18 08:49:29;;;;;;;0.10;0.00;;;24.20;99.90;;;;;;5071490;28;20478;-77
2023/06/18 08:51:57;;;;;;;0.10;0.00;;;24.20;99.90;;;;;;5087625;28;20439;-77
2023/06/18 08:54:31;;;;;;;0.10;0.00;;;24.10;99.90;;;;;;5088674;28;20450;-77
2023/06/18 08:57:19;;;;;;;0.10;0.00;;;24.20;99.90;;;;;;5085986;28;20438;-76
2023/06/18 08:59:46;;;;;;;0.10;0.00;;;24.40;99.90;;;;;;5070023;28;20560;-77
2023/06/18 09:02:18;;;;;;;0.10;0.00;;;24.30;99.90;;;;;;5089965;28;20918;-76
2023/06/18 09:04:44;;;;;;;0.10;0.00;;;24.40;99.90;;;;;;5090244;28;20463;-77
2023/06/18 09:07:11;;;;;;;0.10;0.00;;;24.60;99.90;;;;;;5091154;28;20474;-76
2023/06/18 09:09:37;;;;;;;0.10;0.00;;;24.80;99.90;;;;;;5097217;28;20867;-76
2023/06/18 09:12:02;;;;;;;0.10;0.00;;;24.90;99.90;;;;;;5074886;28;20473;-74
2023/06/18 09:14:28;;;;;;;0.10;0.00;;;24.90;99.90;;;;;;5100502;28;20533;-75
2023/06/18 09:16:54;;;;;;;0.10;0.00;;;25.10;99.90;;;;;;5090513;28;20184;-76
2023/06/18 09:19:21;;;;;;;0.10;0.00;;;24.90;99.90;;;;;;5092925;28;20215;-76
2023/06/18 09:21:46;;;;;;;0.10;0.00;;;25.00;99.90;;;;;;5086659;28;20474;-75
2023/06/18 09:24:23;;;;;;;0.10;0.00;;;25.30;99.90;;;;;;5078892;28;21090;-76
2023/06/18 09:26:58;;;;;;;0.10;0.00;;;25.50;99.90;;;;;;5087832;28;20555;-76
2023/06/18 09:29:28;;;;;;;0.10;0.00;;;25.70;99.90;;;;;;5071959;28;20478;-76
2023/06/18 09:31:53;;;;;;;0.10;0.00;;;25.70;99.90;;;;;;5086500;28;20504;-75
2023/06/18 09:34:19;;;;;;;0.10;0.00;;;25.50;99.90;;;;;;5076812;28;20966;-75
2023/06/18 09:36:47;;;;;;;0.10;0.00;;;25.80;99.90;;;;;;5094664;28;20177;-76
2023/06/18 09:39:20;;;;;;;0.10;0.00;;;25.70;99.90;;;;;;5078917;28;20443;-76
2023/06/18 09:41:47;;;;;;;0.10;0.00;;;26.00;99.90;;;;;;5091081;28;21308;-76
2023/06/18 09:44:22;;;;;;;0.10;0.00;;;26.10;99.90;;;;;;5074101;28;20442;-75
2023/06/18 09:46:50;;;;;;;0.10;0.00;;;26.30;99.90;;;;;;5094187;28;20445;-75
2023/06/18 09:49:18;;;;;;;0.10;0.00;;;26.20;99.90;;;;;;5091945;28;20512;-75
2023/06/18 09:51:44;;;;;;;0.10;0.00;;;26.30;99.90;;;;;;5068679;28;20808;-76
2023/06/18 09:54:10;;;;;;;0.10;0.00;;;26.30;99.90;;;;;;5103384;28;21243;-75
2023/06/18 09:56:38;;;;;;;0.10;0.00;;;26.30;99.90;;;;;;5084130;28;20447;-75
2023/06/18 09:59:04;;;;;;;0.10;0.00;;;26.30;99.90;;;;;;5090263;28;20181;-75
2023/06/18 10:01:44;;;;;;;0.10;0.00;;;26.50;99.90;;;;;;5090464;28;20439;-75
2023/06/18 10:04:10;;;;;;;0.10;0.00;;;26.60;99.90;;;;;;5091296;28;20654;-75
2023/06/18 10:06:38;;;;;;;0.10;0.00;;;26.80;99.90;;;;;;5050012;28;20471;-76
2023/06/18 10:09:08;;;;;;;0.10;0.00;;;26.40;99.90;;;;;;5056119;28;20272;-75
2023/06/18 10:11:36;;;;;;;0.10;0.00;;;26.50;99.90;;;;;;5054438;28;20437;-76
2023/06/18 10:14:10;;;;;;;0.10;0.00;;;26.80;99.90;;;;;;5058472;28;20807;-75
2023/06/18 10:16:37;;;;;;;0.10;0.10;;;26.90;99.90;;;;;;5045574;28;20966;-75
2023/06/18 10:19:11;;;;;;;0.10;0.00;;;27.20;99.90;;;;;;5055690;28;20488;-76
2023/06/18 10:21:44;;;;;;;0.10;0.00;;;27.30;99.90;;;;;;5056020;28;20440;-76
2023/06/18 10:24:16;;;;;;;0.10;0.00;;;27.50;99.90;;;;;;5053498;28;20524;-75
2023/06/18 10:26:42;;;;;;;0.10;0.00;;;27.70;99.90;;;;;;5053065;28;20433;-76
2023/06/18 10:29:12;;;;;;;0.10;0.00;;;28.00;99.90;;;;;;5049068;28;20980;-76
2023/06/18 10:31:38;;;;;;;0.10;0.00;;;28.00;99.90;;;;;;5045875;28;20445;-74
2023/06/18 10:34:05;;;;;;;0.10;0.00;;;27.80;99.90;;;;;;5052531;28;20473;-76
2023/06/18 10:36:31;;;;;;;0.10;0.00;;;27.90;99.90;;;;;;5049624;28;20899;-75
2023/06/18 10:38:58;;;;;;;0.10;0.00;;;27.50;99.90;;;;;;5055999;28;20452;-76
2023/06/18 10:41:24;;;;;;;0.10;0.00;;;28.30;99.90;;;;;;5054758;28;20540;-76
2023/06/18 10:43:51;;;;;;;0.10;0.00;;;29.00;99.90;;;;;;5045771;28;20536;-75
2023/06/18 10:46:17;;;;;;;0.10;0.00;;;29.10;99.90;;;;;;5049282;28;20181;-76
2023/06/18 10:49:13;;;;;;;0.10;0.00;;;29.10;99.90;;;;;;5052510;28;20485;-75
2023/06/18 10:51:39;;;;;;;0.10;0.00;;;29.10;99.90;;;;;;5056459;28;20476;-76
2023/06/18 10:54:27;;;;;;;0.10;0.00;;;28.90;99.90;;;;;;5039358;28;20862;-75
2023/06/18 10:56:57;;;;;;;0.10;0.00;;;28.90;99.90;;;;;;5051195;28;20441;-76
2023/06/18 10:59:42;;;;;;;0.10;0.00;;;29.10;99.90;;;;;;5049235;28;21045;-76
2023/06/18 11:02:07;;;;;;;0.10;0.00;;;29.40;99.90;;;;;;5049910;28;20819;-76
2023/06/18 11:04:34;;;;;;;0.10;0.00;;;29.00;99.90;;;;;;5056566;28;20470;-74
2023/06/18 11:07:12;;;;;;;0.10;0.00;;;29.90;99.90;;;;;;5095448;28;20523;-74
2023/06/18 11:09:58;;;;;;;0.10;0.00;;;30.10;99.90;;;;;;5094295;28;20914;-74
2023/06/18 11:12:28;;;;;;;0.10;0.00;;;29.90;99.90;;;;;;5087450;28;20950;-74
2023/06/18 11:15:19;;;;;;;0.10;0.00;;;28.50;99.90;;;;;;5086609;28;20446;-73
2023/06/18 11:17:48;;;;;;;0.10;0.00;;;28.80;99.90;;;;;;5082793;28;20984;-74
2023/06/18 11:20:14;;;;;;;0.10;0.00;;;29.40;99.90;;;;;;5109463;28;20473;-73
2023/06/18 11:22:41;;;;;;;0.10;0.00;;;29.60;99.90;;;;;;5105543;28;20430;-75
2023/06/18 11:25:09;;;;;;;0.10;0.00;;;29.00;98.30;;;;;;5084729;28;20464;-75
2023/06/18 11:27:35;;;;;;;0.10;0.00;;;28.40;99.60;;;;;;5093816;28;20458;-75
2023/06/18 11:30:01;;;;;;;0.10;0.00;;;27.70;98.90;;;;;;5095601;28;20451;-76
2023/06/18 11:32:27;;;;;;;0.10;0.00;;;27.70;99.90;;;;;;5088001;28;20509;-75
2023/06/18 11:34:56;;;;;;;0.10;0.00;;;28.60;99.90;;;;;;5087700;28;20743;-73
2023/06/18 11:37:26;;;;;;;0.10;0.00;;;29.30;99.90;;;;;;5071239;28;20441;-74
2023/06/18 11:39:51;;;;;;;0.10;0.00;;;29.50;98.70;;;;;;5069409;28;22272;-74
2023/06/18 11:42:19;;;;;;;0.10;0.00;;;29.20;99.40;;;;;;5099788;28;20486;-74
2023/06/18 11:44:52;;;;;;;0.10;0.00;;;28.50;99.00;;;;;;5073443;28;20758;-74
2023/06/18 11:47:18;;;;;;;0.10;0.00;;;28.40;99.90;;;;;;5086720;28;20521;-74
2023/06/18 11:49:45;;;;;;;0.10;0.00;;;28.20;99.90;;;;;;5072843;28;20966;-74
2023/06/18 11:52:12;;;;;;;0.10;0.00;;;27.90;99.90;;;;;;5093883;28;20983;-74
2023/06/18 11:54:39;;;;;;;0.10;0.00;;;27.70;99.90;;;;;;5096188;28;20434;-74
2023/06/18 11:57:10;;;;;;;0.10;0.00;;;28.70;99.90;;;;;;5089794;28;20438;-74
2023/06/18 11:59:36;;;;;;;0.10;0.00;;;29.60;99.60;;;;;;5069384;28;20435;-74
2023/06/18 12:02:12;;;;;;;0.10;0.00;;;29.40;99.60;;;;;;5068177;28;20803;-74
2023/06/18 12:04:38;;;;;;;0.10;0.00;;;29.10;99.20;;;;;;5095615;28;20480;-74
2023/06/18 12:07:04;;;;;;;0.10;0.00;;;28.30;99.60;;;;;;5085815;28;21090;-74
2023/06/18 12:09:37;;;;;;;0.10;0.00;;;27.50;99.90;;;;;;5085361;28;20539;-75
2023/06/18 12:12:38;;;;;;;0.10;0.00;;;26.80;99.90;;;;;;5086775;28;20173;-75
2023/06/18 12:15:07;;;;;;;0.10;0.00;;;26.70;99.90;;;;;;5072214;28;20450;-75
2023/06/18 12:17:40;;;;;;;0.10;0.00;;;27.50;99.90;;;;;;5087697;28;20445;-77
2023/06/18 12:20:13;;;;;;;0.10;0.00;;;28.10;99.90;;;;;;5072804;28;20435;-74
2023/06/18 12:22:39;;;;;;;0.10;0.00;;;29.30;99.30;;;;;;5086465;28;20439;-74
2023/06/18 12:25:06;;;;;;;0.10;0.00;;;29.80;97.80;;;;;;5085371;28;20530;-73
2023/06/18 12:27:34;;;;;;;0.10;0.00;;;29.80;97.70;;;;;;5083275;28;20526;-74
2023/06/18 12:30:01;;;;;;;0.10;0.00;;;30.70;97.40;;;;;;5070791;28;20530;-74
2023/06/18 12:32:26;;;;;;;0.10;0.00;;;31.10;97.50;;;;;;5089591;28;20938;-74
2023/06/18 12:34:52;;;;;;;0.10;0.00;;;31.10;97.70;;;;;;5089191;28;20429;-74
2023/06/18 12:37:18;;;;;;;0.10;0.00;;;30.40;95.40;;;;;;5089754;28;20260;-74
2023/06/18 12:40:15;;;;;;;0.10;0.00;;;30.00;96.50;;;;;;5089492;28;20645;-74
2023/06/18 12:42:41;;;;;;;0.10;0.00;;;30.00;97.40;;;;;;5085671;28;20246;-75
2023/06/18 12:45:08;;;;;;;0.10;0.00;;;30.20;97.70;;;;;;5085386;28;21057;-75
2023/06/18 12:47:42;;;;;;;0.10;0.00;;;30.20;95.30;;;;;;5087187;28;20884;-74
2023/06/18 12:50:08;;;;;;;0.10;0.00;;;30.00;96.90;;;;;;5086938;28;20439;-74